createdAt,value
2017-12-23T00:00:20.355Z,57.20
2017-12-23T00:01:20.328Z,57.10
2017-12-23T00:02:20.309Z,58.20
2017-12-23T00:03:20.289Z,57.60
2017-12-23T00:04:20.289Z,62.00
2017-12-23T00:05:20.255Z,60.20
2017-12-23T00:06:20.235Z,59.80
2017-12-23T00:07:20.210Z,63.30
2017-12-23T00:08:20.196Z,61.00
2017-12-23T00:09:20.175Z,59.30
2017-12-23T00:10:20.156Z,61.30
2017-12-23T00:11:20.135Z,60.10
2017-12-23T00:12:20.115Z,60.70
2017-12-23T00:13:20.097Z,60.80
2017-12-23T00:14:20.078Z,61.10
2017-12-23T00:15:20.055Z,59.00
2017-12-23T00:16:20.038Z,61.20
2017-12-23T00:17:19.996Z,61.20
2017-12-23T00:18:19.972Z,59.30
2017-12-23T00:19:19.958Z,61.50
2017-12-23T00:20:19.938Z,61.20
2017-12-23T00:21:19.914Z,61.60
2017-12-23T00:22:19.895Z,62.80
2017-12-23T00:23:19.879Z,68.00
2017-12-23T00:24:19.858Z,64.30
2017-12-23T00:25:19.848Z,62.70
2017-12-23T00:26:19.821Z,64.90
2017-12-23T00:27:19.801Z,65.30
2017-12-23T00:28:19.778Z,65.10
2017-12-23T00:29:19.763Z,62.70
2017-12-23T00:30:19.740Z,63.70
2017-12-23T00:31:19.719Z,62.10
2017-12-23T00:32:19.703Z,60.60
2017-12-23T00:33:19.685Z,62.20
2017-12-23T00:34:19.674Z,62.60
2017-12-23T00:35:19.647Z,63.70
2017-12-23T00:36:19.666Z,65.30
2017-12-23T00:37:19.607Z,63.80
2017-12-23T00:38:19.592Z,65.10
2017-12-23T00:39:19.570Z,63.00
2017-12-23T00:40:19.556Z,63.40
2017-12-23T00:41:19.532Z,65.90
2017-12-23T00:42:19.516Z,64.10
2017-12-23T00:43:19.493Z,63.30
2017-12-23T00:44:19.479Z,63.60
2017-12-23T00:45:19.455Z,65.30
2017-12-23T00:46:19.444Z,66.10
2017-12-23T00:47:19.442Z,63.20
2017-12-23T00:48:19.394Z,66.40
2017-12-23T00:49:19.380Z,60.80
2017-12-23T00:50:19.610Z,63.30
2017-12-23T00:51:19.339Z,64.60
2017-12-23T00:52:19.324Z,62.10
2017-12-23T00:53:19.302Z,65.50
2017-12-23T00:54:19.282Z,65.60
2017-12-23T00:55:19.272Z,66.40
2017-12-23T00:56:19.244Z,64.20
2017-12-23T00:57:19.221Z,66.10
2017-12-23T00:58:19.202Z,66.10
2017-12-23T00:59:19.183Z,66.60
2017-12-23T01:00:19.165Z,66.80
2017-12-23T01:01:19.144Z,65.80
2017-12-23T01:02:19.127Z,66.40
2017-12-23T01:03:19.106Z,67.90
2017-12-23T01:04:19.086Z,66.10
2017-12-23T01:05:19.072Z,67.90
2017-12-23T01:06:19.052Z,66.00
2017-12-23T01:07:19.030Z,69.90
2017-12-23T01:08:19.017Z,68.20
2017-12-23T01:09:18.998Z,65.80
2017-12-23T01:10:18.975Z,66.60
2017-12-23T01:11:18.957Z,68.80
2017-12-23T01:12:18.938Z,67.20
2017-12-23T01:13:18.923Z,68.00
2017-12-23T01:14:18.891Z,66.90
2017-12-23T01:15:18.875Z,68.60
2017-12-23T01:16:18.857Z,66.70
2017-12-23T01:17:18.835Z,68.10
2017-12-23T01:18:18.816Z,69.20
2017-12-23T01:19:18.798Z,69.20
2017-12-23T01:20:18.782Z,71.10
2017-12-23T01:21:18.760Z,70.10
2017-12-23T01:22:18.741Z,69.70
2017-12-23T01:23:18.725Z,69.10
2017-12-23T01:24:18.702Z,70.50
2017-12-23T01:25:18.682Z,71.90
2017-12-23T01:26:18.665Z,68.60
2017-12-23T01:27:18.641Z,71.20
2017-12-23T01:28:18.628Z,70.70
2017-12-23T01:29:18.606Z,70.30
2017-12-23T01:30:18.584Z,71.60
2017-12-23T01:31:18.568Z,69.60
2017-12-23T01:32:18.553Z,71.00
2017-12-23T01:33:18.524Z,70.40
2017-12-23T01:34:18.511Z,73.10
2017-12-23T01:35:18.488Z,70.10
2017-12-23T01:36:18.470Z,72.90
2017-12-23T01:37:18.446Z,73.00
2017-12-23T01:38:18.431Z,72.60
2017-12-23T01:39:18.415Z,72.50
2017-12-23T01:40:18.392Z,71.20
2017-12-23T01:41:18.375Z,70.30
2017-12-23T01:42:18.352Z,74.90
2017-12-23T01:43:18.330Z,74.10
2017-12-23T01:44:18.312Z,74.90
2017-12-23T01:45:18.291Z,74.80
2017-12-23T01:46:18.273Z,72.60
2017-12-23T01:47:18.256Z,71.60
2017-12-23T01:48:18.233Z,70.90
2017-12-23T01:49:18.213Z,69.90
2017-12-23T01:50:18.194Z,69.20
2017-12-23T01:51:18.180Z,72.20
2017-12-23T01:52:18.156Z,68.60
2017-12-23T01:53:18.137Z,72.30
2017-12-23T01:54:18.119Z,67.80
2017-12-23T01:55:18.095Z,68.70
2017-12-23T01:56:18.079Z,67.30
2017-12-23T01:57:18.059Z,67.60
2017-12-23T01:58:18.035Z,67.70
2017-12-23T01:59:18.019Z,67.20
2017-12-23T02:00:17.996Z,64.10
2017-12-23T02:01:17.976Z,68.30
2017-12-23T02:02:17.958Z,68.30
2017-12-23T02:03:17.936Z,67.40
2017-12-23T02:04:17.921Z,65.80
2017-12-23T02:05:17.898Z,67.00
2017-12-23T02:06:17.881Z,64.20
2017-12-23T02:07:17.859Z,65.70
2017-12-23T02:08:17.841Z,65.20
2017-12-23T02:09:17.820Z,64.30
2017-12-23T02:10:17.804Z,64.10
2017-12-23T02:11:17.782Z,64.00
2017-12-23T02:12:17.766Z,67.90
2017-12-23T02:13:17.742Z,64.90
2017-12-23T02:14:17.723Z,62.80
2017-12-23T02:15:17.702Z,61.80
2017-12-23T02:16:17.686Z,61.60
2017-12-23T02:17:17.662Z,58.00
2017-12-23T02:18:17.640Z,58.90
2017-12-23T02:19:17.627Z,56.90
2017-12-23T02:20:17.605Z,53.70
2017-12-23T02:21:17.589Z,53.10
2017-12-23T02:22:17.561Z,54.40
2017-12-23T02:23:17.543Z,56.50
2017-12-23T02:24:17.530Z,52.00
2017-12-23T02:25:17.506Z,50.20
2017-12-23T02:26:17.491Z,50.00
2017-12-23T02:27:17.465Z,49.80
2017-12-23T02:28:17.446Z,49.00
2017-12-23T02:29:17.425Z,48.20
2017-12-23T02:30:17.409Z,41.50
2017-12-23T02:31:17.382Z,41.20
2017-12-23T02:32:17.362Z,38.30
2017-12-23T02:33:17.350Z,35.40
2017-12-23T02:34:17.323Z,36.20
2017-12-23T02:35:17.307Z,34.50
2017-12-23T02:36:17.284Z,31.40
2017-12-23T02:37:17.276Z,32.00
2017-12-23T02:38:17.252Z,33.70
2017-12-23T02:39:17.226Z,33.30
2017-12-23T02:40:17.210Z,34.30
2017-12-23T02:41:17.188Z,34.00
2017-12-23T02:42:17.169Z,35.00
2017-12-23T02:43:17.147Z,34.90
2017-12-23T02:44:17.130Z,35.80
2017-12-23T02:45:17.110Z,36.20
2017-12-23T02:46:17.090Z,35.50
2017-12-23T02:47:17.071Z,36.50
2017-12-23T02:48:17.046Z,34.70
2017-12-23T02:49:17.033Z,35.00
2017-12-23T02:50:17.011Z,37.60
2017-12-23T02:51:16.990Z,34.60
2017-12-23T02:52:16.968Z,36.30
2017-12-23T02:53:16.951Z,38.40
2017-12-23T02:54:16.926Z,36.50
2017-12-23T02:55:16.913Z,36.10
2017-12-23T02:56:16.889Z,35.50
2017-12-23T02:57:16.875Z,40.00
2017-12-23T02:58:16.849Z,37.90
2017-12-23T02:59:16.830Z,38.70
2017-12-23T03:00:16.811Z,39.30
2017-12-23T03:01:16.790Z,37.70
2017-12-23T03:02:16.772Z,36.40
2017-12-23T03:03:16.750Z,36.00
2017-12-23T03:04:16.730Z,35.40
2017-12-23T03:05:16.718Z,35.20
2017-12-23T03:06:16.699Z,39.10
2017-12-23T03:07:16.674Z,37.20
2017-12-23T03:08:16.655Z,37.40
2017-12-23T03:09:16.636Z,36.70
2017-12-23T03:10:16.615Z,36.80
2017-12-23T03:11:16.597Z,37.30
2017-12-23T03:12:16.581Z,35.40
2017-12-23T03:13:16.559Z,37.80
2017-12-23T03:14:16.541Z,37.90
2017-12-23T03:15:16.516Z,36.30
2017-12-23T03:16:16.502Z,37.30
2017-12-23T03:17:16.476Z,37.20
2017-12-23T03:18:16.458Z,36.90
2017-12-23T03:19:16.437Z,36.50
2017-12-23T03:20:16.426Z,37.20
2017-12-23T03:21:16.403Z,37.50
2017-12-23T03:22:16.380Z,37.70
2017-12-23T03:23:16.358Z,37.90
2017-12-23T03:24:16.341Z,37.70
2017-12-23T03:25:16.322Z,37.40
2017-12-23T03:26:16.306Z,39.40
2017-12-23T03:27:16.278Z,36.60
2017-12-23T03:28:16.277Z,37.80
2017-12-23T03:29:16.239Z,38.30
2017-12-23T03:30:16.221Z,39.30
2017-12-23T03:31:16.198Z,38.00
2017-12-23T03:32:16.178Z,41.20
2017-12-23T03:33:16.158Z,39.00
2017-12-23T03:34:16.139Z,40.50
2017-12-23T03:35:16.128Z,41.30
2017-12-23T03:36:16.102Z,40.80
2017-12-23T03:37:16.084Z,41.60
2017-12-23T03:38:16.062Z,40.10
2017-12-23T03:39:16.039Z,39.90
2017-12-23T03:40:16.020Z,42.50
2017-12-23T03:41:16.007Z,43.20
2017-12-23T03:42:15.982Z,42.30
2017-12-23T03:43:15.965Z,41.20
2017-12-23T03:44:15.942Z,42.30
2017-12-23T03:45:15.924Z,43.50
2017-12-23T03:46:15.902Z,41.60
2017-12-23T03:47:15.886Z,44.40
2017-12-23T03:48:15.862Z,46.00
2017-12-23T03:49:15.845Z,45.10
2017-12-23T03:50:15.821Z,46.40
2017-12-23T03:51:15.804Z,46.20
2017-12-23T03:52:15.781Z,47.20
2017-12-23T03:53:15.764Z,45.50
2017-12-23T03:54:15.741Z,46.00
2017-12-23T03:55:15.733Z,46.30
2017-12-23T03:56:15.713Z,47.90
2017-12-23T03:57:15.687Z,47.80
2017-12-23T03:58:15.666Z,48.10
2017-12-23T03:59:15.642Z,50.70
2017-12-23T04:00:15.625Z,48.00
2017-12-23T04:01:15.606Z,48.10
2017-12-23T04:02:15.586Z,43.90
2017-12-23T04:03:15.569Z,46.70
2017-12-23T04:04:15.545Z,44.50
2017-12-23T04:05:15.526Z,44.60
2017-12-23T04:06:15.509Z,44.30
2017-12-23T04:07:15.485Z,42.90
2017-12-23T04:08:15.469Z,43.10
2017-12-23T04:09:15.445Z,41.40
2017-12-23T04:10:15.429Z,41.60
2017-12-23T04:11:15.406Z,41.60
2017-12-23T04:12:15.388Z,39.40
2017-12-23T04:13:15.367Z,37.60
2017-12-23T04:14:15.348Z,40.90
2017-12-23T04:15:15.330Z,39.60
2017-12-23T04:16:15.309Z,40.50
2017-12-23T04:17:15.285Z,39.90
2017-12-23T04:18:15.271Z,40.60
2017-12-23T04:19:15.250Z,41.20
2017-12-23T04:20:15.228Z,41.20
2017-12-23T04:21:15.210Z,41.40
2017-12-23T04:22:15.191Z,42.00
2017-12-23T04:23:15.171Z,39.90
2017-12-23T04:24:15.148Z,43.80
2017-12-23T04:25:15.129Z,44.40
2017-12-23T04:26:15.109Z,44.90
2017-12-23T04:27:15.090Z,45.00
2017-12-23T04:28:15.067Z,44.90
2017-12-23T04:29:15.048Z,44.90
2017-12-23T04:30:15.030Z,48.50
2017-12-23T04:31:15.005Z,46.20
2017-12-23T04:32:14.985Z,49.70
2017-12-23T04:33:14.966Z,49.80
2017-12-23T04:34:14.944Z,50.60
2017-12-23T04:35:14.924Z,52.50
2017-12-23T04:36:14.905Z,52.20
2017-12-23T04:37:14.890Z,50.60
2017-12-23T04:38:14.867Z,51.40
2017-12-23T04:39:14.849Z,51.60
2017-12-23T04:40:14.827Z,53.10
2017-12-23T04:41:14.811Z,53.90
2017-12-23T04:42:14.788Z,50.70
2017-12-23T04:43:14.773Z,53.00
2017-12-23T04:44:14.750Z,48.00
2017-12-23T04:45:14.741Z,48.10
2017-12-23T04:46:14.709Z,49.40
2017-12-23T04:47:14.689Z,47.50
2017-12-23T04:48:14.668Z,50.60
2017-12-23T04:49:14.652Z,51.50
2017-12-23T04:50:14.633Z,45.30
2017-12-23T04:51:14.614Z,50.50
2017-12-23T04:52:14.590Z,50.80
2017-12-23T04:53:14.571Z,49.70
2017-12-23T04:54:14.549Z,51.50
2017-12-23T04:55:14.531Z,48.30
2017-12-23T04:56:14.510Z,48.70
2017-12-23T04:57:14.490Z,49.90
2017-12-23T04:58:14.473Z,51.90
2017-12-23T04:59:14.455Z,49.60
2017-12-23T05:00:14.430Z,47.30
2017-12-23T05:01:14.410Z,47.70
2017-12-23T05:02:14.388Z,49.20
2017-12-23T05:03:14.371Z,48.10
2017-12-23T05:04:14.359Z,46.40
2017-12-23T05:05:14.337Z,47.50
2017-12-23T05:06:14.312Z,45.40
2017-12-23T05:07:14.299Z,47.80
2017-12-23T05:08:14.275Z,44.90
2017-12-23T05:09:14.250Z,46.30
2017-12-23T05:10:14.237Z,46.10
2017-12-23T05:11:14.215Z,43.10
2017-12-23T05:12:14.195Z,44.50
2017-12-23T05:13:14.177Z,43.30
2017-12-23T05:14:14.151Z,46.00
2017-12-23T05:15:14.138Z,42.50
2017-12-23T05:16:14.115Z,42.50
2017-12-23T05:17:14.099Z,44.00
2017-12-23T05:18:14.076Z,43.70
2017-12-23T05:19:14.057Z,42.30
2017-12-23T05:20:14.035Z,44.30
2017-12-23T05:21:14.016Z,45.10
2017-12-23T05:22:13.996Z,45.20
2017-12-23T05:23:13.986Z,44.70
2017-12-23T05:24:13.957Z,45.20
2017-12-23T05:25:13.937Z,47.40
2017-12-23T05:26:13.915Z,45.90
2017-12-23T05:27:13.892Z,46.40
2017-12-23T05:28:13.876Z,48.60
2017-12-23T05:29:13.856Z,48.30
2017-12-23T05:30:13.834Z,49.00
2017-12-23T05:31:13.815Z,50.50
2017-12-23T05:32:14.119Z,48.80
2017-12-23T05:33:13.779Z,51.40
2017-12-23T05:34:13.754Z,49.80
2017-12-23T05:35:13.733Z,50.80
2017-12-23T05:36:13.713Z,53.80
2017-12-23T05:37:13.700Z,49.80
2017-12-23T05:38:13.674Z,48.30
2017-12-23T05:39:13.658Z,50.40
2017-12-23T05:40:13.636Z,48.80
2017-12-23T05:41:13.626Z,48.50
2017-12-23T05:42:13.598Z,48.10
2017-12-23T05:43:13.581Z,47.10
2017-12-23T05:44:13.557Z,44.80
2017-12-23T05:45:13.541Z,44.40
2017-12-23T05:46:13.515Z,45.70
2017-12-23T05:47:13.505Z,47.00
2017-12-23T05:48:13.476Z,47.20
2017-12-23T05:49:13.464Z,46.40
2017-12-23T05:50:13.435Z,43.80
2017-12-23T05:51:13.425Z,44.20
2017-12-23T05:52:13.397Z,43.70
2017-12-23T05:53:13.381Z,41.50
2017-12-23T05:54:13.358Z,41.90
2017-12-23T05:55:13.341Z,40.40
2017-12-23T05:56:13.317Z,42.90
2017-12-23T05:57:13.301Z,41.60
2017-12-23T05:58:13.279Z,37.30
2017-12-23T05:59:13.260Z,38.30
2017-12-23T06:00:13.245Z,38.70
2017-12-23T06:01:13.240Z,37.80
2017-12-23T06:02:13.202Z,34.60
2017-12-23T06:03:13.179Z,31.70
2017-12-23T06:04:13.160Z,31.90
2017-12-23T06:05:13.152Z,30.80
2017-12-23T06:06:13.120Z,30.90
2017-12-23T06:07:13.100Z,31.50
2017-12-23T06:08:13.082Z,31.30
2017-12-23T06:09:13.061Z,30.60
2017-12-23T06:10:13.039Z,30.20
2017-12-23T06:11:13.020Z,31.30
2017-12-23T06:12:13.001Z,31.70
2017-12-23T06:13:12.981Z,30.00
2017-12-23T06:14:12.961Z,32.80
2017-12-23T06:15:12.939Z,31.80
2017-12-23T06:16:12.919Z,27.50
2017-12-23T06:17:12.903Z,27.70
2017-12-23T06:18:12.879Z,27.70
2017-12-23T06:19:12.861Z,27.70
2017-12-23T06:20:12.839Z,26.90
2017-12-23T06:21:12.823Z,26.50
2017-12-23T06:22:12.798Z,26.20
2017-12-23T06:23:12.784Z,25.40
2017-12-23T06:24:12.760Z,26.70
2017-12-23T06:25:12.740Z,26.20
2017-12-23T06:26:12.721Z,23.70
2017-12-23T06:27:12.699Z,25.20
2017-12-23T06:28:12.683Z,26.40
2017-12-23T06:29:12.663Z,25.60
2017-12-23T06:30:12.666Z,26.00
2017-12-23T06:31:12.622Z,26.70
2017-12-23T06:32:12.603Z,26.20
2017-12-23T06:33:12.583Z,27.00
2017-12-23T06:34:12.570Z,28.30
2017-12-23T06:35:12.539Z,26.70
2017-12-23T06:36:12.522Z,28.20
2017-12-23T06:37:12.500Z,27.20
2017-12-23T06:38:12.483Z,28.10
2017-12-23T06:39:12.461Z,28.00
2017-12-23T06:40:12.441Z,27.10
2017-12-23T06:41:12.420Z,29.00
2017-12-23T06:42:12.405Z,28.20
2017-12-23T06:43:12.383Z,28.30
2017-12-23T06:44:12.373Z,28.40
2017-12-23T06:45:12.346Z,28.90
2017-12-23T06:46:12.323Z,28.50
2017-12-23T06:47:12.306Z,28.10
2017-12-23T06:48:12.280Z,29.00
2017-12-23T06:49:12.264Z,28.50
2017-12-23T06:50:12.248Z,28.10
2017-12-23T06:51:12.224Z,27.20
2017-12-23T06:52:12.204Z,28.00
2017-12-23T06:53:12.184Z,27.00
2017-12-23T06:54:12.160Z,28.60
2017-12-23T06:55:12.140Z,29.20
2017-12-23T06:56:12.121Z,28.70
2017-12-23T06:57:12.109Z,26.10
2017-12-23T06:58:12.080Z,25.50
2017-12-23T06:59:12.061Z,23.40
2017-12-23T07:00:12.040Z,24.80
2017-12-23T07:01:12.023Z,22.90
2017-12-23T07:02:12.000Z,23.20
2017-12-23T07:03:11.981Z,23.40
2017-12-23T07:04:11.961Z,23.10
2017-12-23T07:05:11.945Z,22.00
2017-12-23T07:06:11.920Z,20.50
2017-12-23T07:07:11.907Z,21.30
2017-12-23T07:08:11.883Z,20.90
2017-12-23T07:09:11.873Z,20.30
2017-12-23T07:10:11.841Z,22.20
2017-12-23T07:11:11.821Z,19.00
2017-12-23T07:12:11.805Z,20.40
2017-12-23T07:13:11.782Z,19.10
2017-12-23T07:14:11.764Z,20.40
2017-12-23T07:15:11.743Z,19.30
2017-12-23T07:16:11.728Z,19.00
2017-12-23T07:17:11.702Z,19.40
2017-12-23T07:18:11.689Z,18.10
2017-12-23T07:19:11.664Z,17.30
2017-12-23T07:20:11.655Z,18.70
2017-12-23T07:21:11.629Z,18.60
2017-12-23T07:22:11.608Z,19.40
2017-12-23T07:23:11.588Z,19.60
2017-12-23T07:24:11.568Z,19.40
2017-12-23T07:25:11.545Z,19.50
2017-12-23T07:26:11.523Z,19.50
2017-12-23T07:27:11.507Z,20.60
2017-12-23T07:28:11.491Z,20.30
2017-12-23T07:29:11.465Z,20.00
2017-12-23T07:30:11.449Z,21.00
2017-12-23T07:31:11.430Z,21.00
2017-12-23T07:32:11.408Z,20.70
2017-12-23T07:33:11.392Z,22.60
2017-12-23T07:34:11.370Z,22.30
2017-12-23T07:35:11.342Z,22.60
2017-12-23T07:36:11.332Z,21.40
2017-12-23T07:37:11.307Z,22.30
2017-12-23T07:38:11.289Z,23.50
2017-12-23T07:39:11.267Z,24.70
2017-12-23T07:40:11.244Z,25.50
2017-12-23T07:41:11.230Z,23.90
2017-12-23T07:42:11.205Z,24.50
2017-12-23T07:43:11.188Z,25.30
2017-12-23T07:44:11.167Z,26.70
2017-12-23T07:45:11.150Z,26.40
2017-12-23T07:46:11.128Z,26.30
2017-12-23T07:47:11.110Z,27.50
2017-12-23T07:48:11.087Z,26.00
2017-12-23T07:49:11.067Z,26.50
2017-12-23T07:50:11.046Z,26.90
2017-12-23T07:51:11.031Z,28.50
2017-12-23T07:52:11.009Z,29.00
2017-12-23T07:53:10.993Z,28.40
2017-12-23T07:54:10.967Z,28.40
2017-12-23T07:55:10.954Z,28.50
2017-12-23T07:56:10.930Z,29.00
2017-12-23T07:57:10.910Z,28.40
2017-12-23T07:58:10.887Z,29.30
2017-12-23T07:59:10.869Z,27.50
2017-12-23T08:00:10.850Z,28.00
2017-12-23T08:01:10.831Z,27.90
2017-12-23T08:02:10.808Z,29.50
2017-12-23T08:03:10.786Z,30.30
2017-12-23T08:04:10.772Z,28.20
2017-12-23T08:05:10.746Z,29.90
2017-12-23T08:06:10.727Z,29.90
2017-12-23T08:07:10.708Z,28.90
2017-12-23T08:08:10.687Z,28.70
2017-12-23T08:09:10.668Z,29.50
2017-12-23T08:10:10.652Z,30.60
2017-12-23T08:11:10.628Z,32.80
2017-12-23T08:12:10.611Z,30.50
2017-12-23T08:13:10.597Z,33.40
2017-12-23T08:14:10.575Z,34.40
2017-12-23T08:15:10.550Z,34.10
2017-12-23T08:16:10.538Z,36.60
2017-12-23T08:17:10.511Z,36.70
2017-12-23T08:18:10.494Z,35.00
2017-12-23T08:19:10.473Z,37.20
2017-12-23T08:20:10.499Z,39.30
2017-12-23T08:21:10.431Z,39.10
2017-12-23T08:22:10.416Z,37.70
2017-12-23T08:23:10.392Z,39.30
2017-12-23T08:24:10.377Z,40.30
2017-12-23T08:25:10.355Z,40.10
2017-12-23T08:26:10.339Z,40.00
2017-12-23T08:27:10.323Z,43.10
2017-12-23T08:28:10.294Z,39.20
2017-12-23T08:29:10.275Z,41.70
2017-12-23T08:30:10.249Z,40.20
2017-12-23T08:31:10.244Z,41.50
2017-12-23T08:32:10.215Z,40.00
2017-12-23T08:33:10.196Z,42.30
2017-12-23T08:34:10.176Z,41.80
2017-12-23T08:35:10.154Z,40.10
2017-12-23T08:36:10.132Z,39.50
2017-12-23T08:37:10.127Z,41.20
2017-12-23T08:38:10.094Z,38.30
2017-12-23T08:39:10.077Z,37.60
2017-12-23T08:40:10.072Z,37.10
2017-12-23T08:41:10.039Z,36.10
2017-12-23T08:42:10.017Z,34.50
2017-12-23T08:43:10.007Z,30.80
2017-12-23T08:44:09.978Z,32.50
2017-12-23T08:45:09.963Z,30.90
2017-12-23T08:46:09.933Z,29.70
2017-12-23T08:47:09.915Z,30.40
2017-12-23T08:48:09.905Z,31.00
2017-12-23T08:49:09.876Z,30.40
2017-12-23T08:50:09.863Z,29.90
2017-12-23T08:51:09.837Z,29.40
2017-12-23T08:52:09.816Z,30.80
2017-12-23T08:53:09.799Z,29.30
2017-12-23T08:54:09.781Z,29.20
2017-12-23T08:55:09.757Z,30.80
2017-12-23T08:56:09.739Z,30.90
2017-12-23T08:57:09.716Z,32.80
2017-12-23T08:58:09.697Z,32.50
2017-12-23T08:59:09.678Z,31.80
2017-12-23T09:00:09.660Z,35.50
2017-12-23T09:01:09.636Z,34.30
2017-12-23T09:02:09.622Z,35.80
2017-12-23T09:03:09.601Z,35.60
2017-12-23T09:04:09.586Z,37.00
2017-12-23T09:05:09.564Z,36.90
2017-12-23T09:06:09.540Z,38.80
2017-12-23T09:07:09.515Z,38.70
2017-12-23T09:08:09.499Z,41.30
2017-12-23T09:09:09.476Z,39.00
2017-12-23T09:10:09.461Z,39.10
2017-12-23T09:11:09.437Z,41.20
2017-12-23T09:12:09.419Z,42.70
2017-12-23T09:13:09.399Z,41.60
2017-12-23T09:14:09.382Z,43.60
2017-12-23T09:15:09.357Z,44.30
2017-12-23T09:16:09.350Z,43.70
2017-12-23T09:17:09.321Z,44.30
2017-12-23T09:18:09.299Z,45.90
2017-12-23T09:19:09.283Z,44.60
2017-12-23T09:20:09.263Z,46.70
2017-12-23T09:21:09.247Z,44.50
2017-12-23T09:22:09.222Z,46.60
2017-12-23T09:23:09.199Z,46.50
2017-12-23T09:24:09.179Z,44.80
2017-12-23T09:25:09.162Z,43.70
2017-12-23T09:26:09.144Z,44.30
2017-12-23T09:27:09.119Z,46.10
2017-12-23T09:28:09.104Z,45.90
2017-12-23T09:29:09.079Z,50.60
2017-12-23T09:30:09.062Z,45.70
2017-12-23T09:31:09.052Z,44.10
2017-12-23T09:32:09.027Z,46.10
2017-12-23T09:33:09.017Z,46.50
2017-12-23T09:34:08.993Z,46.60
2017-12-23T09:35:08.961Z,45.10
2017-12-23T09:36:08.946Z,44.20
2017-12-23T09:37:08.935Z,45.30
2017-12-23T09:38:08.907Z,44.70
2017-12-23T09:39:08.879Z,45.60
2017-12-23T09:40:08.864Z,46.20
2017-12-23T09:41:08.845Z,46.30
2017-12-23T09:42:08.827Z,46.50
2017-12-23T09:43:08.804Z,46.20
2017-12-23T09:44:08.787Z,45.10
2017-12-23T09:45:08.770Z,45.00
2017-12-23T09:46:08.751Z,43.30
2017-12-23T09:47:08.725Z,45.00
2017-12-23T09:48:08.709Z,41.90
2017-12-23T09:49:08.685Z,44.40
2017-12-23T09:50:08.669Z,46.20
2017-12-23T09:51:08.645Z,43.30
2017-12-23T09:52:08.627Z,44.80
2017-12-23T09:53:08.606Z,47.50
2017-12-23T09:54:08.614Z,45.20
2017-12-23T09:55:08.566Z,46.30
2017-12-23T09:56:08.549Z,45.40
2017-12-23T09:57:08.530Z,43.30
2017-12-23T09:58:08.507Z,44.30
2017-12-23T09:59:08.487Z,43.00
2017-12-23T10:00:08.465Z,43.30
2017-12-23T10:01:08.456Z,44.80
2017-12-23T10:02:08.428Z,44.60
2017-12-23T10:03:08.409Z,44.20
2017-12-23T10:04:08.388Z,44.00
2017-12-23T10:05:08.369Z,42.30
2017-12-23T10:06:08.350Z,44.30
2017-12-23T10:07:08.331Z,42.10
2017-12-23T10:08:08.310Z,44.10
2017-12-23T10:09:08.298Z,44.50
2017-12-23T10:10:08.270Z,42.90
2017-12-23T10:11:08.257Z,41.50
2017-12-23T10:12:08.232Z,44.10
2017-12-23T10:13:08.219Z,43.70
2017-12-23T10:14:08.197Z,42.00
2017-12-23T10:15:08.174Z,44.80
2017-12-23T10:16:08.151Z,46.70
2017-12-23T10:17:08.142Z,44.80
2017-12-23T10:18:08.119Z,44.10
2017-12-23T10:19:08.105Z,45.90
2017-12-23T10:20:08.074Z,45.20
2017-12-23T10:21:08.060Z,43.30
2017-12-23T10:22:08.036Z,45.40
2017-12-23T10:23:08.025Z,42.00
2017-12-23T10:24:08.000Z,39.90
2017-12-23T10:25:07.977Z,43.00
2017-12-23T10:26:07.960Z,44.00
2017-12-23T10:27:07.942Z,44.40
2017-12-23T10:28:07.920Z,42.40
2017-12-23T10:29:07.900Z,42.90
2017-12-23T10:30:07.878Z,41.50
2017-12-23T10:31:07.862Z,42.10
2017-12-23T10:32:07.841Z,40.60
2017-12-23T10:33:07.821Z,43.60
2017-12-23T10:34:07.798Z,43.90
2017-12-23T10:35:07.784Z,43.10
2017-12-23T10:36:07.760Z,43.40
2017-12-23T10:37:08.002Z,42.60
2017-12-23T10:38:07.721Z,42.40
2017-12-23T10:39:07.702Z,45.70
2017-12-23T10:40:07.687Z,43.60
2017-12-23T10:41:07.661Z,44.60
2017-12-23T10:42:07.651Z,44.30
2017-12-23T10:43:07.621Z,47.70
2017-12-23T10:44:07.601Z,44.30
2017-12-23T10:45:07.590Z,46.00
2017-12-23T10:46:07.561Z,48.80
2017-12-23T10:47:07.541Z,44.30
2017-12-23T10:48:07.523Z,46.60
2017-12-23T10:49:07.504Z,47.30
2017-12-23T10:50:07.480Z,47.60
2017-12-23T10:51:07.464Z,44.40
2017-12-23T10:52:07.443Z,45.90
2017-12-23T10:53:07.423Z,45.90
2017-12-23T10:54:07.401Z,42.30
2017-12-23T10:55:07.380Z,43.00
2017-12-23T10:56:07.361Z,45.10
2017-12-23T10:57:07.359Z,44.50
2017-12-23T10:58:07.324Z,44.00
2017-12-23T10:59:07.308Z,42.40
2017-12-23T11:00:07.283Z,42.00
2017-12-23T11:01:07.264Z,43.30
2017-12-23T11:02:07.246Z,44.60
2017-12-23T11:03:07.223Z,41.20
2017-12-23T11:04:07.204Z,43.90
2017-12-23T11:05:07.437Z,42.10
2017-12-23T11:06:07.165Z,42.10
2017-12-23T11:07:07.148Z,43.50
2017-12-23T11:08:07.124Z,42.90
2017-12-23T11:09:07.114Z,40.50
2017-12-23T11:10:07.084Z,43.80
2017-12-23T11:11:07.070Z,43.30
2017-12-23T11:12:07.051Z,45.00
2017-12-23T11:13:07.032Z,42.60
2017-12-23T11:14:07.007Z,43.00
2017-12-23T11:15:06.990Z,43.40
2017-12-23T11:16:06.972Z,43.00
2017-12-23T11:17:06.953Z,42.60
2017-12-23T11:18:06.933Z,39.30
2017-12-23T11:19:06.920Z,41.90
2017-12-23T11:20:06.893Z,42.90
2017-12-23T11:21:06.873Z,41.90
2017-12-23T11:22:06.856Z,38.70
2017-12-23T11:23:06.831Z,39.60
2017-12-23T11:24:06.808Z,39.70
2017-12-23T11:25:06.793Z,41.60
2017-12-23T11:26:06.774Z,39.20
2017-12-23T11:27:06.754Z,39.60
2017-12-23T11:28:06.741Z,38.90
2017-12-23T11:29:06.723Z,36.80
2017-12-23T11:30:06.699Z,36.50
2017-12-23T11:31:06.674Z,39.50
2017-12-23T11:32:06.665Z,39.50
2017-12-23T11:33:06.635Z,39.20
2017-12-23T11:34:06.620Z,36.60
2017-12-23T11:35:06.594Z,36.10
2017-12-23T11:36:06.580Z,37.00
2017-12-23T11:37:06.557Z,37.70
2017-12-23T11:38:06.542Z,37.20
2017-12-23T11:39:06.521Z,36.40
2017-12-23T11:40:06.504Z,36.40
2017-12-23T11:41:06.479Z,36.90
2017-12-23T11:42:06.462Z,35.70
2017-12-23T11:43:06.437Z,36.50
2017-12-23T11:44:06.420Z,33.70
2017-12-23T11:45:06.401Z,35.40
2017-12-23T11:46:06.382Z,35.10
2017-12-23T11:47:06.366Z,34.10
2017-12-23T11:48:06.341Z,35.00
2017-12-23T11:49:06.331Z,35.00
2017-12-23T11:50:06.302Z,34.70
2017-12-23T11:51:06.311Z,34.60
2017-12-23T11:52:06.265Z,36.60
2017-12-23T11:53:06.246Z,35.30
2017-12-23T11:54:06.220Z,34.00
2017-12-23T11:55:06.201Z,34.40
2017-12-23T11:56:06.182Z,34.40
2017-12-23T11:57:06.168Z,35.60
2017-12-23T11:58:06.141Z,35.60
2017-12-23T11:59:06.125Z,34.90
2017-12-23T12:00:06.108Z,35.50
2017-12-23T12:01:06.100Z,35.10
2017-12-23T12:02:06.061Z,37.00
2017-12-23T12:03:06.052Z,37.00
2017-12-23T12:04:06.031Z,36.40
2017-12-23T12:05:06.013Z,36.90
2017-12-23T12:06:05.984Z,36.10
2017-12-23T12:07:05.975Z,38.30
2017-12-23T12:08:05.946Z,36.90
2017-12-23T12:09:05.936Z,37.60
2017-12-23T12:10:05.912Z,37.70
2017-12-23T12:11:05.889Z,36.30
2017-12-23T12:12:05.870Z,34.70
2017-12-23T12:13:05.851Z,35.10
2017-12-23T12:14:05.855Z,35.90
2017-12-23T12:15:05.816Z,35.20
2017-12-23T12:16:05.790Z,34.00
2017-12-23T12:17:05.776Z,35.10
2017-12-23T12:18:05.752Z,36.50
2017-12-23T12:19:05.731Z,34.30
2017-12-23T12:20:05.716Z,34.60
2017-12-23T12:21:05.693Z,36.50
2017-12-23T12:22:05.675Z,35.00
2017-12-23T12:23:05.653Z,34.10
2017-12-23T12:24:05.636Z,34.50
2017-12-23T12:25:05.625Z,32.50
2017-12-23T12:26:05.589Z,33.70
2017-12-23T12:27:05.576Z,33.10
2017-12-23T12:28:05.562Z,33.30
2017-12-23T12:29:05.542Z,33.10
2017-12-23T12:30:05.518Z,32.10
2017-12-23T12:31:05.502Z,31.40
2017-12-23T12:32:05.481Z,33.20
2017-12-23T12:33:05.461Z,32.00
2017-12-23T12:34:05.441Z,32.00
2017-12-23T12:35:05.422Z,32.00
2017-12-23T12:36:05.399Z,32.70
2017-12-23T12:37:05.384Z,32.90
2017-12-23T12:38:05.357Z,32.40
2017-12-23T12:39:05.340Z,32.00
2017-12-23T12:40:05.319Z,30.90
2017-12-23T12:41:05.301Z,30.40
2017-12-23T12:42:05.279Z,31.70
2017-12-23T12:43:05.278Z,32.10
2017-12-23T12:44:05.246Z,30.80
2017-12-23T12:45:05.224Z,31.30
2017-12-23T12:46:05.209Z,30.70
2017-12-23T12:47:05.184Z,31.20
2017-12-23T12:48:05.168Z,30.90
2017-12-23T12:49:05.149Z,32.30
2017-12-23T12:50:05.134Z,31.60
2017-12-23T12:51:05.110Z,30.30
2017-12-23T12:52:05.101Z,26.40